Kydon — SWBZ — position and weather

sailwx.info

Track history (hours):
 
Tides and Currents Weather Stations Pressure Air Temp Water Temp Dewpoint Dewpoint Depression Visibility Wind Speed Wind Dir Waves Ship Positions

Kydon

Last reported at 2015-Jul-29 12:33 UTC. Time now 2015-Jul-29 13:29 UTC.
Position N 37°13' E 023°52'.

Length 192 m; draft 6.5 m.

Type: Passenger vessel. MMSI: 239593000.

Date/timePositionNaut miles runAvg speedWind from/ knotsBaromVisibWave heightAir tempDewpointWater temp
2015-Jul-29 12:33N 37°13' E 023°52'2020.3
2015-Jul-29 11:33N 36°52' E 023°56'2020.3
2015-Jul-29 10:33N 36°32' E 024°00'2220.4
2015-Jul-29 09:30N 36°11' E 024°05'1920.3
2015-Jul-29 08:33N 35°52' E 024°09'2220.4
2015-Jul-29 07:29N 35°31' E 024°12'3 0.7
2015-Jul-29 02:32N 35°34' E 024°14'2120.7
2015-Jul-29 01:33N 35°54' E 024°10'2020.5
2015-Jul-29 00:33N 36°14' E 024°06'2120.4
2015-Jul-28 23:32N 36°34' E 024°01'2020.2
2015-Jul-28 22:33N 36°54' E 023°56'2020.4
2015-Jul-28 21:34N 37°14' E 023°50'2020.1
2015-Jul-28 20:34N 37°33' E 023°45'2020.0
2015-Jul-28 19:33N 37°52' E 023°37'5 4.9
2015-Jul-28 18:34N 37°57' E 023°38'0 0.0
2015-Jul-28 17:34N 37°57' E 023°38'0 0.0
2015-Jul-28 16:33N 37°57' E 023°38'0 0.0
2015-Jul-28 15:33N 37°57' E 023°38'0 0.0
2015-Jul-28 14:34N 37°57' E 023°38'0 0.0
2015-Jul-28 13:33N 37°57' E 023°38'0 0.0
2015-Jul-28 12:34N 37°57' E 023°38'0 0.0
2015-Jul-28 11:33N 37°57' E 023°38'0 0.0
2015-Jul-28 10:34N 37°57' E 023°38'0 0.0
2015-Jul-28 09:33N 37°57' E 023°38'0 0.0
2015-Jul-28 08:34N 37°57' E 023°38'0 0.0
2015-Jul-28 07:34N 37°57' E 023°38'0 0.0
2015-Jul-28 06:34N 37°57' E 023°38'0 0.0
2015-Jul-28 05:34N 37°57' E 023°38'0 0.0
2015-Jul-28 04:33N 37°57' E 023°38'0 0.0
2015-Jul-28 03:33N 37°57' E 023°38'5 5.1
2015-Jul-28 02:33N 37°52' E 023°39'2120.1
2015-Jul-28 01:32N 37°33' E 023°48'2121.0
2015-Jul-28 00:33N 37°12' E 023°52'2020.5
2015-Jul-27 23:33N 36°52' E 023°56'2420.8
2015-Jul-27 22:25N 36°29' E 024°02'1820.7
2015-Jul-27 21:31N 36°10' E 024°06'2020.5
2015-Jul-27 20:33N 35°51' E 024°10'19 1.0
2015-Jul-27 02:27N 35°32' E 024°13'2220.7
2015-Jul-27 01:24N 35°53' E 024°09'1820.8
2015-Jul-27 00:33N 36°11' E 024°05'6220.8
2015-Jul-26 21:33N 37°12' E 023°50'2020.3
2015-Jul-26 20:33N 37°32' E 023°45'2120.8
2015-Jul-26 19:33N 37°52' E 023°37'5 5.4
2015-Jul-26 18:34N 37°57' E 023°38'0 0.0
2015-Jul-26 17:34N 37°57' E 023°38'0 0.0
2015-Jul-26 16:33N 37°57' E 023°38'0 0.0
2015-Jul-26 15:34N 37°57' E 023°38'7 7.2
2015-Jul-26 14:33N 37°50' E 023°40'2020.2
2015-Jul-26 13:33N 37°30' E 023°48'2020.5
2015-Jul-26 12:34N 37°10' E 023°53'2020.3
2015-Jul-26 11:34N 36°50' E 023°57'78 8.6
2015-Jul-26 02:32N 35°34' E 024°13'2020.3
2015-Jul-26 01:32N 35°54' E 024°10'2120.3
2015-Jul-26 00:32N 36°14' E 024°05'2720.0
2015-Jul-25 23:12N 36°40' E 023°59'1320.4
2015-Jul-25 22:33N 36°53' E 023°56'2019.8
2015-Jul-25 21:31N 37°13' E 023°50'1919.7
2015-Jul-25 20:33N 37°31' E 023°45'2020.3
2015-Jul-25 19:33N 37°51' E 023°37'6 6.2
2015-Jul-25 18:33N 37°57' E 023°38'0 0.0
2015-Jul-25 17:33N 37°57' E 023°38'0 0.0
2015-Jul-25 16:33N 37°57' E 023°38'0 0.0
2015-Jul-25 15:33N 37°57' E 023°38'5 5.1
2015-Jul-25 14:34N 37°52' E 023°39'2020.4
2015-Jul-25 13:33N 37°33' E 023°48'2120.9
2015-Jul-25 12:32N 37°11' E 023°52'6520.3
2015-Jul-25 09:18N 36°07' E 024°06'1520.1
2015-Jul-25 08:33N 35°52' E 024°09'22 3.6
2015-Jul-25 02:33N 35°31' E 024°12'2020.4
2015-Jul-25 01:33N 35°51' E 024°10'2120.7
2015-Jul-25 00:33N 36°11' E 024°05'8320.8
2015-Jul-24 20:33N 37°33' E 023°44'2020.5
2015-Jul-24 19:33N 37°52' E 023°37'5 4.5
2015-Jul-24 18:33N 37°57' E 023°38'0 0.0
2015-Jul-24 17:33N 37°57' E 023°38'0 0.0
2015-Jul-24 16:33N 37°57' E 023°38'0 0.0
2015-Jul-24 15:33N 37°57' E 023°38'4 4.3
2015-Jul-24 14:34N 37°53' E 023°38'2020.4
2015-Jul-24 13:34N 37°33' E 023°47'10420.5
2015-Jul-24 08:29N 35°51' E 024°09'1920.2
2015-Jul-24 07:33N 35°32' E 024°13'1 0.1
2015-Jul-24 02:34N 35°32' E 024°13'2221.6
2015-Jul-24 01:32N 35°54' E 024°09'2221.8
2015-Jul-24 00:33N 36°15' E 024°05'6821.7
2015-Jul-23 21:24N 37°22' E 023°48'1820.9
2015-Jul-23 20:33N 37°39' E 023°42'1717.5
2015-Jul-23 19:33N 37°56' E 023°38'0 0.5
2015-Jul-23 18:33N 37°57' E 023°38'0 0.0
2015-Jul-23 17:33N 37°57' E 023°38'0 0.0
2015-Jul-23 16:33N 37°57' E 023°38'0 0.0
2015-Jul-23 15:33N 37°57' E 023°38'0 0.0
2015-Jul-23 14:33N 37°57' E 023°38'0 0.0
2015-Jul-23 13:33N 37°57' E 023°38'0 0.0
2015-Jul-23 12:33N 37°57' E 023°38'0 0.0
2015-Jul-23 11:33N 37°57' E 023°38'0 0.0
2015-Jul-23 10:33N 37°57' E 023°38'0 0.0
2015-Jul-23 09:33N 37°57' E 023°38'0 0.0
2015-Jul-23 08:33N 37°57' E 023°38'0 0.0
2015-Jul-23 07:33N 37°57' E 023°38'0 0.0
2015-Jul-23 06:33N 37°57' E 023°38'0 0.0
2015-Jul-23 05:33N 37°57' E 023°38'0 0.0
2015-Jul-23 04:33N 37°57' E 023°38'0 0.0
2015-Jul-23 03:33N 37°57' E 023°38'1110.5
2015-Jul-23 02:33N 37°47' E 023°43'4 0.2
2015-Jul-22 00:33N 37°43' E 023°41'1414.2
2015-Jul-21 23:33N 37°57' E 023°38'0 0.0
2015-Jul-21 22:33N 37°57' E 023°38'0 0.0
2015-Jul-21 21:34N 37°57' E 023°38'0 0.0
2015-Jul-21 20:34N 37°57' E 023°38'0 0.0
2015-Jul-21 19:33N 37°57' E 023°38'0 0.0
2015-Jul-21 18:34N 37°57' E 023°38'0 0.0
2015-Jul-21 17:33N 37°57' E 023°38'0 0.0
2015-Jul-21 16:33N 37°57' E 023°38'0 0.0
2015-Jul-21 15:34N 37°57' E 023°38'0 0.0
2015-Jul-21 14:33N 37°57' E 023°38'0 0.0
2015-Jul-21 13:34N 37°57' E 023°38'0 0.0
2015-Jul-21 12:33N 37°57' E 023°38'0 0.0
2015-Jul-21 11:33N 37°57' E 023°38'0 0.0
2015-Jul-21 10:33N 37°57' E 023°38'0 0.0
2015-Jul-21 09:33N 37°57' E 023°38'0 0.0
2015-Jul-21 08:33N 37°57' E 023°38'0 0.0
2015-Jul-21 07:33N 37°57' E 023°38'0 0.0
2015-Jul-21 06:33N 37°57' E 023°38'0 0.5
2015-Jul-21 05:33N 37°57' E 023°38'0 0.0
2015-Jul-21 04:33N 37°57' E 023°38'0 0.0
2015-Jul-21 03:33N 37°57' E 023°38'0 0.0
2015-Jul-21 02:33N 37°57' E 023°38'0 0.0
2015-Jul-21 01:33N 37°57' E 023°38'0 0.0
2015-Jul-21 00:33N 37°57' E 023°38'0 0.0
2015-Jul-20 23:33N 37°57' E 023°38'0 0.0
2015-Jul-20 22:33N 37°57' E 023°38'0 0.0
2015-Jul-20 21:33N 37°57' E 023°38'0 0.0
2015-Jul-20 20:33N 37°57' E 023°38'0 0.0
2015-Jul-20 19:33N 37°57' E 023°38'0 0.0
2015-Jul-20 18:34N 37°57' E 023°38'0 0.0
2015-Jul-20 17:33N 37°57' E 023°38'0 0.0
2015-Jul-20 16:33N 37°57' E 023°38'4 3.6
2015-Jul-20 15:33N 37°58' E 023°33'0 0.0
2015-Jul-20 14:33N 37°58' E 023°33'0 0.0
2015-Jul-20 13:33N 37°58' E 023°33'0 0.0
2015-Jul-20 12:33N 37°58' E 023°33'0 0.0
2015-Jul-20 11:33N 37°58' E 023°33'0 0.0
2015-Jul-20 10:33N 37°58' E 023°33'0 0.0
2015-Jul-20 09:33N 37°58' E 023°33'0 0.0
2015-Jul-20 08:33N 37°58' E 023°33'0 0.0
2015-Jul-20 07:33N 37°58' E 023°33'0 0.0
2015-Jul-20 06:33N 37°58' E 023°33'0 0.0
2015-Jul-20 05:33N 37°58' E 023°33'0 0.0
2015-Jul-20 04:33N 37°58' E 023°33'0 0.0
2015-Jul-20 03:33N 37°58' E 023°33'0 0.0
2015-Jul-20 02:33N 37°58' E 023°33'0 0.0
2015-Jul-20 01:33N 37°58' E 023°33'0 0.0
2015-Jul-20 00:33N 37°58' E 023°33'0 0.0
2015-Jul-19 23:33N 37°58' E 023°33'0 0.0
2015-Jul-19 22:33N 37°58' E 023°33'0 0.0
2015-Jul-19 21:33N 37°58' E 023°33'0 0.0
2015-Jul-19 20:33N 37°58' E 023°33'0 0.0
2015-Jul-19 19:33N 37°58' E 023°33'0 0.0
2015-Jul-19 18:33N 37°58' E 023°33'0 0.0
2015-Jul-19 17:33N 37°58' E 023°33'0 0.0
2015-Jul-19 16:33N 37°58' E 023°33'0 0.0
2015-Jul-19 15:33N 37°58' E 023°33'0 0.0
2015-Jul-19 14:33N 37°58' E 023°33'0 0.0
2015-Jul-19 13:33N 37°58' E 023°33'0 0.0
2015-Jul-19 12:33N 37°58' E 023°33'  
Track history (hours):
 
Tides and Currents Weather Stations Pressure Air Temp Water Temp Dewpoint Dewpoint Depression Visibility Wind Speed Wind Dir Waves Ship Positions

Kydon

Last reported at 2015-Jul-29 12:33 UTC. Time now 2015-Jul-29 13:29 UTC.
Position N 37°13' E 023°52'.

Length 192 m; draft 6.5 m.

Type: Passenger vessel. MMSI: 239593000.

Date/timePositionNaut miles runAvg speedWind from/ knotsBaromVisibWave heightAir tempDewpointWater temp
2015-Jul-29 12:33N 37°13' E 023°52'2020.3
2015-Jul-29 11:33N 36°52' E 023°56'2020.3
2015-Jul-29 10:33N 36°32' E 024°00'2220.4
2015-Jul-29 09:30N 36°11' E 024°05'1920.3
2015-Jul-29 08:33N 35°52' E 024°09'2220.4
2015-Jul-29 07:29N 35°31' E 024°12'3 0.7
2015-Jul-29 02:32N 35°34' E 024°14'2120.7
2015-Jul-29 01:33N 35°54' E 024°10'2020.5
2015-Jul-29 00:33N 36°14' E 024°06'2120.4
2015-Jul-28 23:32N 36°34' E 024°01'2020.2
2015-Jul-28 22:33N 36°54' E 023°56'2020.4
2015-Jul-28 21:34N 37°14' E 023°50'2020.1
2015-Jul-28 20:34N 37°33' E 023°45'2020.0
2015-Jul-28 19:33N 37°52' E 023°37'5 4.9
2015-Jul-28 18:34N 37°57' E 023°38'0 0.0
2015-Jul-28 17:34N 37°57' E 023°38'0 0.0
2015-Jul-28 16:33N 37°57' E 023°38'0 0.0
2015-Jul-28 15:33N 37°57' E 023°38'0 0.0
2015-Jul-28 14:34N 37°57' E 023°38'0 0.0
2015-Jul-28 13:33N 37°57' E 023°38'0 0.0
2015-Jul-28 12:34N 37°57' E 023°38'0 0.0
2015-Jul-28 11:33N 37°57' E 023°38'0 0.0
2015-Jul-28 10:34N 37°57' E 023°38'0 0.0
2015-Jul-28 09:33N 37°57' E 023°38'0 0.0
2015-Jul-28 08:34N 37°57' E 023°38'0 0.0
2015-Jul-28 07:34N 37°57' E 023°38'0 0.0
2015-Jul-28 06:34N 37°57' E 023°38'0 0.0
2015-Jul-28 05:34N 37°57' E 023°38'0 0.0
2015-Jul-28 04:33N 37°57' E 023°38'0 0.0
2015-Jul-28 03:33N 37°57' E 023°38'5 5.1
2015-Jul-28 02:33N 37°52' E 023°39'2120.1
2015-Jul-28 01:32N 37°33' E 023°48'2121.0
2015-Jul-28 00:33N 37°12' E 023°52'2020.5
2015-Jul-27 23:33N 36°52' E 023°56'2420.8
2015-Jul-27 22:25N 36°29' E 024°02'1820.7
2015-Jul-27 21:31N 36°10' E 024°06'2020.5
2015-Jul-27 20:33N 35°51' E 024°10'19 1.0
2015-Jul-27 02:27N 35°32' E 024°13'2220.7
2015-Jul-27 01:24N 35°53' E 024°09'1820.8
2015-Jul-27 00:33N 36°11' E 024°05'6220.8
2015-Jul-26 21:33N 37°12' E 023°50'2020.3
2015-Jul-26 20:33N 37°32' E 023°45'2120.8
2015-Jul-26 19:33N 37°52' E 023°37'5 5.4
2015-Jul-26 18:34N 37°57' E 023°38'0 0.0
2015-Jul-26 17:34N 37°57' E 023°38'0 0.0
2015-Jul-26 16:33N 37°57' E 023°38'0 0.0
2015-Jul-26 15:34N 37°57' E 023°38'7 7.2
2015-Jul-26 14:33N 37°50' E 023°40'2020.2
2015-Jul-26 13:33N 37°30' E 023°48'2020.5
2015-Jul-26 12:34N 37°10' E 023°53'2020.3
2015-Jul-26 11:34N 36°50' E 023°57'78 8.6
2015-Jul-26 02:32N 35°34' E 024°13'2020.3
2015-Jul-26 01:32N 35°54' E 024°10'2120.3
2015-Jul-26 00:32N 36°14' E 024°05'2720.0
2015-Jul-25 23:12N 36°40' E 023°59'1320.4
2015-Jul-25 22:33N 36°53' E 023°56'2019.8
2015-Jul-25 21:31N 37°13' E 023°50'1919.7
2015-Jul-25 20:33N 37°31' E 023°45'2020.3
2015-Jul-25 19:33N 37°51' E 023°37'6 6.2
2015-Jul-25 18:33N 37°57' E 023°38'0 0.0
2015-Jul-25 17:33N 37°57' E 023°38'0 0.0
2015-Jul-25 16:33N 37°57' E 023°38'0 0.0
2015-Jul-25 15:33N 37°57' E 023°38'5 5.1
2015-Jul-25 14:34N 37°52' E 023°39'2020.4
2015-Jul-25 13:33N 37°33' E 023°48'2120.9
2015-Jul-25 12:32N 37°11' E 023°52'6520.3
2015-Jul-25 09:18N 36°07' E 024°06'1520.1
2015-Jul-25 08:33N 35°52' E 024°09'22 3.6
2015-Jul-25 02:33N 35°31' E 024°12'2020.4
2015-Jul-25 01:33N 35°51' E 024°10'2120.7
2015-Jul-25 00:33N 36°11' E 024°05'8320.8
2015-Jul-24 20:33N 37°33' E 023°44'2020.5
2015-Jul-24 19:33N 37°52' E 023°37'5 4.5
2015-Jul-24 18:33N 37°57' E 023°38'0 0.0
2015-Jul-24 17:33N 37°57' E 023°38'0 0.0
2015-Jul-24 16:33N 37°57' E 023°38'0 0.0
2015-Jul-24 15:33N 37°57' E 023°38'4 4.3
2015-Jul-24 14:34N 37°53' E 023°38'2020.4
2015-Jul-24 13:34N 37°33' E 023°47'10420.5
2015-Jul-24 08:29N 35°51' E 024°09'1920.2
2015-Jul-24 07:33N 35°32' E 024°13'1 0.1
2015-Jul-24 02:34N 35°32' E 024°13'2221.6
2015-Jul-24 01:32N 35°54' E 024°09'2221.8
2015-Jul-24 00:33N 36°15' E 024°05'6821.7
2015-Jul-23 21:24N 37°22' E 023°48'1820.9
2015-Jul-23 20:33N 37°39' E 023°42'1717.5
2015-Jul-23 19:33N 37°56' E 023°38'0 0.5
2015-Jul-23 18:33N 37°57' E 023°38'0 0.0
2015-Jul-23 17:33N 37°57' E 023°38'0 0.0
2015-Jul-23 16:33N 37°57' E 023°38'0 0.0
2015-Jul-23 15:33N 37°57' E 023°38'0 0.0
2015-Jul-23 14:33N 37°57' E 023°38'0 0.0
2015-Jul-23 13:33N 37°57' E 023°38'0 0.0
2015-Jul-23 12:33N 37°57' E 023°38'0 0.0
2015-Jul-23 11:33N 37°57' E 023°38'0 0.0
2015-Jul-23 10:33N 37°57' E 023°38'0 0.0
2015-Jul-23 09:33N 37°57' E 023°38'0 0.0
2015-Jul-23 08:33N 37°57' E 023°38'0 0.0
2015-Jul-23 07:33N 37°57' E 023°38'0 0.0
2015-Jul-23 06:33N 37°57' E 023°38'0 0.0
2015-Jul-23 05:33N 37°57' E 023°38'0 0.0
2015-Jul-23 04:33N 37°57' E 023°38'0 0.0
2015-Jul-23 03:33N 37°57' E 023°38'1110.5
2015-Jul-23 02:33N 37°47' E 023°43'4 0.2
2015-Jul-22 00:33N 37°43' E 023°41'1414.2
2015-Jul-21 23:33N 37°57' E 023°38'0 0.0
2015-Jul-21 22:33N 37°57' E 023°38'0 0.0
2015-Jul-21 21:34N 37°57' E 023°38'0 0.0
2015-Jul-21 20:34N 37°57' E 023°38'0 0.0
2015-Jul-21 19:33N 37°57' E 023°38'0 0.0
2015-Jul-21 18:34N 37°57' E 023°38'0 0.0
2015-Jul-21 17:33N 37°57' E 023°38'0 0.0
2015-Jul-21 16:33N 37°57' E 023°38'0 0.0
2015-Jul-21 15:34N 37°57' E 023°38'0 0.0
2015-Jul-21 14:33N 37°57' E 023°38'0 0.0
2015-Jul-21 13:34N 37°57' E 023°38'0 0.0
2015-Jul-21 12:33N 37°57' E 023°38'0 0.0
2015-Jul-21 11:33N 37°57' E 023°38'0 0.0
2015-Jul-21 10:33N 37°57' E 023°38'0 0.0
2015-Jul-21 09:33N 37°57' E 023°38'0 0.0
2015-Jul-21 08:33N 37°57' E 023°38'0 0.0
2015-Jul-21 07:33N 37°57' E 023°38'0 0.0
2015-Jul-21 06:33N 37°57' E 023°38'0 0.5
2015-Jul-21 05:33N 37°57' E 023°38'0 0.0
2015-Jul-21 04:33N 37°57' E 023°38'0 0.0
2015-Jul-21 03:33N 37°57' E 023°38'0 0.0
2015-Jul-21 02:33N 37°57' E 023°38'0 0.0
2015-Jul-21 01:33N 37°57' E 023°38'0 0.0
2015-Jul-21 00:33N 37°57' E 023°38'0 0.0
2015-Jul-20 23:33N 37°57' E 023°38'0 0.0
2015-Jul-20 22:33N 37°57' E 023°38'0 0.0
2015-Jul-20 21:33N 37°57' E 023°38'0 0.0
2015-Jul-20 20:33N 37°57' E 023°38'0 0.0
2015-Jul-20 19:33N 37°57' E 023°38'0 0.0
2015-Jul-20 18:34N 37°57' E 023°38'0 0.0
2015-Jul-20 17:33N 37°57' E 023°38'0 0.0
2015-Jul-20 16:33N 37°57' E 023°38'4 3.6
2015-Jul-20 15:33N 37°58' E 023°33'0 0.0
2015-Jul-20 14:33N 37°58' E 023°33'0 0.0
2015-Jul-20 13:33N 37°58' E 023°33'0 0.0
2015-Jul-20 12:33N 37°58' E 023°33'0 0.0
2015-Jul-20 11:33N 37°58' E 023°33'0 0.0
2015-Jul-20 10:33N 37°58' E 023°33'0 0.0
2015-Jul-20 09:33N 37°58' E 023°33'0 0.0
2015-Jul-20 08:33N 37°58' E 023°33'0 0.0
2015-Jul-20 07:33N 37°58' E 023°33'0 0.0
2015-Jul-20 06:33N 37°58' E 023°33'0 0.0
2015-Jul-20 05:33N 37°58' E 023°33'0 0.0
2015-Jul-20 04:33N 37°58' E 023°33'0 0.0
2015-Jul-20 03:33N 37°58' E 023°33'0 0.0
2015-Jul-20 02:33N 37°58' E 023°33'0 0.0
2015-Jul-20 01:33N 37°58' E 023°33'0 0.0
2015-Jul-20 00:33N 37°58' E 023°33'0 0.0
2015-Jul-19 23:33N 37°58' E 023°33'0 0.0
2015-Jul-19 22:33N 37°58' E 023°33'0 0.0
2015-Jul-19 21:33N 37°58' E 023°33'0 0.0
2015-Jul-19 20:33N 37°58' E 023°33'0 0.0
2015-Jul-19 19:33N 37°58' E 023°33'0 0.0
2015-Jul-19 18:33N 37°58' E 023°33'0 0.0
2015-Jul-19 17:33N 37°58' E 023°33'0 0.0
2015-Jul-19 16:33N 37°58' E 023°33'0 0.0
2015-Jul-19 15:33N 37°58' E 023°33'0 0.0
2015-Jul-19 14:33N 37°58' E 023°33'0 0.0
2015-Jul-19 13:33N 37°58' E 023°33'0 0.0
2015-Jul-19 12:33N 37°58' E 023°33'  

Dump ship's entire track history